sensor_id;sensor_type;location;lat;lon;timestamp;P1;durP1;ratioP1;P2;durP2;ratioP2
11539;SDS011;5826;54.756;9.192;2022-08-14T00:00:00;3.60;;;2.60;;
11539;SDS011;5826;54.756;9.192;2022-08-14T00:02:26;3.28;;;2.90;;
11539;SDS011;5826;54.756;9.192;2022-08-14T00:04:51;2.88;;;2.67;;
11539;SDS011;5826;54.756;9.192;2022-08-14T00:07:17;2.90;;;2.70;;
11539;SDS011;5826;54.756;9.192;2022-08-14T00:09:43;2.90;;;2.70;;
11539;SDS011;5826;54.756;9.192;2022-08-14T00:12:10;3.17;;;2.85;;
11539;SDS011;5826;54.756;9.192;2022-08-14T00:14:36;2.80;;;2.60;;
11539;SDS011;5826;54.756;9.192;2022-08-14T00:17:02;2.75;;;2.55;;
11539;SDS011;5826;54.756;9.192;2022-08-14T00:19:29;2.72;;;2.53;;
11539;SDS011;5826;54.756;9.192;2022-08-14T00:21:54;3.30;;;3.00;;
11539;SDS011;5826;54.756;9.192;2022-08-14T00:24:20;3.03;;;2.83;;
11539;SDS011;5826;54.756;9.192;2022-08-14T00:26:47;2.75;;;2.55;;
11539;SDS011;5826;54.756;9.192;2022-08-14T00:29:12;2.78;;;2.58;;
11539;SDS011;5826;54.756;9.192;2022-08-14T00:31:38;3.28;;;2.50;;
11539;SDS011;5826;54.756;9.192;2022-08-14T00:34:04;2.92;;;2.72;;
11539;SDS011;5826;54.756;9.192;2022-08-14T00:36:29;2.90;;;2.60;;
11539;SDS011;5826;54.756;9.192;2022-08-14T00:38:55;2.70;;;2.50;;
11539;SDS011;5826;54.756;9.192;2022-08-14T00:41:21;2.70;;;2.50;;
11539;SDS011;5826;54.756;9.192;2022-08-14T00:43:47;2.75;;;2.55;;
11539;SDS011;5826;54.756;9.192;2022-08-14T00:46:12;2.92;;;2.53;;
11539;SDS011;5826;54.756;9.192;2022-08-14T00:48:38;2.92;;;2.60;;
11539;SDS011;5826;54.756;9.192;2022-08-14T00:51:06;2.83;;;2.63;;
11539;SDS011;5826;54.756;9.192;2022-08-14T00:53:33;2.75;;;2.53;;
11539;SDS011;5826;54.756;9.192;2022-08-14T00:56:00;2.90;;;2.70;;
11539;SDS011;5826;54.756;9.192;2022-08-14T00:58:26;2.70;;;2.50;;
11539;SDS011;5826;54.756;9.192;2022-08-14T01:00:54;4.93;;;2.90;;
11539;SDS011;5826;54.756;9.192;2022-08-14T01:03:20;2.78;;;2.58;;
11539;SDS011;5826;54.756;9.192;2022-08-14T01:05:47;3.03;;;2.72;;
11539;SDS011;5826;54.756;9.192;2022-08-14T01:08:17;2.95;;;2.50;;
11539;SDS011;5826;54.756;9.192;2022-08-14T01:10:44;3.00;;;2.80;;
11539;SDS011;5826;54.756;9.192;2022-08-14T01:13:18;2.92;;;2.67;;
11539;SDS011;5826;54.756;9.192;2022-08-14T01:15:57;3.58;;;2.65;;
11539;SDS011;5826;54.756;9.192;2022-08-14T01:18:25;2.58;;;2.38;;
11539;SDS011;5826;54.756;9.192;2022-08-14T01:21:11;2.67;;;2.47;;
11539;SDS011;5826;54.756;9.192;2022-08-14T01:23:44;2.95;;;2.67;;
11539;SDS011;5826;54.756;9.192;2022-08-14T01:26:11;2.90;;;2.70;;
11539;SDS011;5826;54.756;9.192;2022-08-14T01:28:39;2.88;;;2.58;;
11539;SDS011;5826;54.756;9.192;2022-08-14T01:31:08;2.88;;;2.67;;
11539;SDS011;5826;54.756;9.192;2022-08-14T01:33:37;3.10;;;2.85;;
11539;SDS011;5826;54.756;9.192;2022-08-14T01:36:04;3.08;;;2.80;;
11539;SDS011;5826;54.756;9.192;2022-08-14T01:38:31;2.95;;;2.60;;
11539;SDS011;5826;54.756;9.192;2022-08-14T01:41:01;2.88;;;2.67;;
11539;SDS011;5826;54.756;9.192;2022-08-14T01:43:31;2.78;;;2.55;;
11539;SDS011;5826;54.756;9.192;2022-08-14T01:46:06;2.90;;;2.70;;
11539;SDS011;5826;54.756;9.192;2022-08-14T01:48:35;2.90;;;2.70;;
11539;SDS011;5826;54.756;9.192;2022-08-14T01:51:02;2.95;;;2.42;;
11539;SDS011;5826;54.756;9.192;2022-08-14T01:53:31;3.63;;;2.80;;
11539;SDS011;5826;54.756;9.192;2022-08-14T01:55:57;2.85;;;2.65;;
11539;SDS011;5826;54.756;9.192;2022-08-14T01:58:26;2.97;;;2.78;;
11539;SDS011;5826;54.756;9.192;2022-08-14T02:00:53;3.10;;;2.75;;
11539;SDS011;5826;54.756;9.192;2022-08-14T02:03:20;3.20;;;2.95;;
11539;SDS011;5826;54.756;9.192;2022-08-14T02:05:50;2.88;;;2.67;;
11539;SDS011;5826;54.756;9.192;2022-08-14T02:08:16;3.20;;;2.75;;
11539;SDS011;5826;54.756;9.192;2022-08-14T02:10:42;2.90;;;2.70;;
11539;SDS011;5826;54.756;9.192;2022-08-14T02:13:08;3.67;;;2.63;;
11539;SDS011;5826;54.756;9.192;2022-08-14T02:15:34;2.75;;;2.55;;
11539;SDS011;5826;54.756;9.192;2022-08-14T02:18:00;3.20;;;2.90;;
11539;SDS011;5826;54.756;9.192;2022-08-14T02:20:31;2.60;;;2.40;;
11539;SDS011;5826;54.756;9.192;2022-08-14T02:22:57;2.70;;;2.50;;
11539;SDS011;5826;54.756;9.192;2022-08-14T02:25:26;2.78;;;2.58;;
11539;SDS011;5826;54.756;9.192;2022-08-14T02:27:52;2.88;;;2.67;;
11539;SDS011;5826;54.756;9.192;2022-08-14T02:30:22;4.40;;;2.65;;
11539;SDS011;5826;54.756;9.192;2022-08-14T02:32:49;3.00;;;2.70;;
11539;SDS011;5826;54.756;9.192;2022-08-14T02:35:15;2.97;;;2.45;;
11539;SDS011;5826;54.756;9.192;2022-08-14T02:37:42;3.28;;;2.97;;
11539;SDS011;5826;54.756;9.192;2022-08-14T02:40:11;2.78;;;2.58;;
11539;SDS011;5826;54.756;9.192;2022-08-14T02:42:37;2.90;;;2.60;;
11539;SDS011;5826;54.756;9.192;2022-08-14T02:45:03;2.92;;;2.67;;
11539;SDS011;5826;54.756;9.192;2022-08-14T02:47:30;3.78;;;2.63;;
11539;SDS011;5826;54.756;9.192;2022-08-14T02:49:56;2.80;;;2.60;;
11539;SDS011;5826;54.756;9.192;2022-08-14T02:52:21;3.00;;;2.80;;
11539;SDS011;5826;54.756;9.192;2022-08-14T02:54:47;3.03;;;2.67;;
11539;SDS011;5826;54.756;9.192;2022-08-14T02:57:13;3.00;;;2.80;;
11539;SDS011;5826;54.756;9.192;2022-08-14T02:59:40;2.90;;;2.70;;
11539;SDS011;5826;54.756;9.192;2022-08-14T03:02:05;3.08;;;2.88;;
11539;SDS011;5826;54.756;9.192;2022-08-14T03:04:32;3.15;;;2.95;;
11539;SDS011;5826;54.756;9.192;2022-08-14T03:06:58;3.03;;;2.80;;
11539;SDS011;5826;54.756;9.192;2022-08-14T03:09:23;2.80;;;2.60;;
11539;SDS011;5826;54.756;9.192;2022-08-14T03:11:49;2.80;;;2.60;;
11539;SDS011;5826;54.756;9.192;2022-08-14T03:14:16;2.85;;;2.38;;
11539;SDS011;5826;54.756;9.192;2022-08-14T03:16:42;2.90;;;2.70;;
11539;SDS011;5826;54.756;9.192;2022-08-14T03:19:09;2.97;;;2.78;;
11539;SDS011;5826;54.756;9.192;2022-08-14T03:21:35;2.70;;;2.50;;
11539;SDS011;5826;54.756;9.192;2022-08-14T03:24:03;3.25;;;2.50;;
11539;SDS011;5826;54.756;9.192;2022-08-14T03:26:41;2.60;;;2.40;;
11539;SDS011;5826;54.756;9.192;2022-08-14T03:29:09;2.65;;;2.45;;
11539;SDS011;5826;54.756;9.192;2022-08-14T03:31:36;2.70;;;2.50;;
11539;SDS011;5826;54.756;9.192;2022-08-14T03:34:04;2.92;;;2.60;;
11539;SDS011;5826;54.756;9.192;2022-08-14T03:36:30;3.17;;;2.47;;
11539;SDS011;5826;54.756;9.192;2022-08-14T03:38:56;2.80;;;2.60;;
11539;SDS011;5826;54.756;9.192;2022-08-14T03:41:24;3.00;;;2.70;;
11539;SDS011;5826;54.756;9.192;2022-08-14T03:43:54;3.17;;;2.55;;
11539;SDS011;5826;54.756;9.192;2022-08-14T03:46:23;2.55;;;2.35;;
11539;SDS011;5826;54.756;9.192;2022-08-14T03:48:51;2.80;;;2.60;;
11539;SDS011;5826;54.756;9.192;2022-08-14T03:51:18;2.60;;;2.40;;
11539;SDS011;5826;54.756;9.192;2022-08-14T03:53:45;2.60;;;2.40;;
11539;SDS011;5826;54.756;9.192;2022-08-14T03:56:12;2.80;;;2.60;;
11539;SDS011;5826;54.756;9.192;2022-08-14T03:58:39;2.78;;;2.58;;
11539;SDS011;5826;54.756;9.192;2022-08-14T04:01:09;2.55;;;2.35;;
11539;SDS011;5826;54.756;9.192;2022-08-14T04:03:35;2.40;;;2.20;;
11539;SDS011;5826;54.756;9.192;2022-08-14T04:06:01;2.50;;;2.30;;
11539;SDS011;5826;54.756;9.192;2022-08-14T04:08:27;2.65;;;2.10;;
11539;SDS011;5826;54.756;9.192;2022-08-14T04:10:53;2.78;;;2.55;;
11539;SDS011;5826;54.756;9.192;2022-08-14T04:13:18;2.63;;;2.42;;
11539;SDS011;5826;54.756;9.192;2022-08-14T04:15:44;2.80;;;2.60;;
11539;SDS011;5826;54.756;9.192;2022-08-14T04:18:11;2.80;;;2.60;;
11539;SDS011;5826;54.756;9.192;2022-08-14T04:20:37;2.60;;;2.40;;
11539;SDS011;5826;54.756;9.192;2022-08-14T04:23:05;2.60;;;2.40;;
11539;SDS011;5826;54.756;9.192;2022-08-14T04:25:32;2.65;;;2.45;;
11539;SDS011;5826;54.756;9.192;2022-08-14T04:27:57;2.58;;;2.30;;
11539;SDS011;5826;54.756;9.192;2022-08-14T04:30:28;2.47;;;2.28;;
11539;SDS011;5826;54.756;9.192;2022-08-14T04:32:54;2.40;;;2.20;;
11539;SDS011;5826;54.756;9.192;2022-08-14T04:35:20;2.50;;;2.30;;
11539;SDS011;5826;54.756;9.192;2022-08-14T04:37:46;2.67;;;2.47;;
11539;SDS011;5826;54.756;9.192;2022-08-14T04:40:30;2.83;;;2.63;;
11539;SDS011;5826;54.756;9.192;2022-08-14T04:43:14;2.53;;;2.40;;
11539;SDS011;5826;54.756;9.192;2022-08-14T04:45:58;2.60;;;2.40;;
11539;SDS011;5826;54.756;9.192;2022-08-14T04:48:25;2.45;;;2.25;;
11539;SDS011;5826;54.756;9.192;2022-08-14T04:50:51;2.50;;;2.30;;
11539;SDS011;5826;54.756;9.192;2022-08-14T04:53:19;2.28;;;2.08;;
11539;SDS011;5826;54.756;9.192;2022-08-14T04:55:49;2.35;;;2.20;;
11539;SDS011;5826;54.756;9.192;2022-08-14T04:58:15;2.33;;;2.20;;
11539;SDS011;5826;54.756;9.192;2022-08-14T05:00:42;2.50;;;2.30;;
11539;SDS011;5826;54.756;9.192;2022-08-14T05:03:09;2.30;;;2.10;;
11539;SDS011;5826;54.756;9.192;2022-08-14T05:05:34;2.33;;;2.13;;
11539;SDS011;5826;54.756;9.192;2022-08-14T05:08:07;2.33;;;2.13;;
11539;SDS011;5826;54.756;9.192;2022-08-14T05:10:40;2.53;;;2.33;;
11539;SDS011;5826;54.756;9.192;2022-08-14T05:13:10;2.75;;;2.17;;
11539;SDS011;5826;54.756;9.192;2022-08-14T05:15:38;2.35;;;2.20;;
11539;SDS011;5826;54.756;9.192;2022-08-14T05:18:09;2.65;;;2.17;;
11539;SDS011;5826;54.756;9.192;2022-08-14T05:20:43;1.95;;;1.85;;
11539;SDS011;5826;54.756;9.192;2022-08-14T05:23:12;1.98;;;1.88;;
11539;SDS011;5826;54.756;9.192;2022-08-14T05:25:39;2.25;;;2.05;;
11539;SDS011;5826;54.756;9.192;2022-08-14T05:28:18;2.13;;;1.92;;
11539;SDS011;5826;54.756;9.192;2022-08-14T05:30:47;1.98;;;1.88;;
11539;SDS011;5826;54.756;9.192;2022-08-14T05:33:15;1.90;;;1.80;;
11539;SDS011;5826;54.756;9.192;2022-08-14T05:35:42;2.10;;;1.98;;
11539;SDS011;5826;54.756;9.192;2022-08-14T05:38:09;2.00;;;1.80;;
11539;SDS011;5826;54.756;9.192;2022-08-14T05:40:40;2.00;;;1.85;;
11539;SDS011;5826;54.756;9.192;2022-08-14T05:43:06;2.35;;;2.00;;
11539;SDS011;5826;54.756;9.192;2022-08-14T05:45:32;1.80;;;1.70;;
11539;SDS011;5826;54.756;9.192;2022-08-14T05:47:59;2.05;;;1.85;;
11539;SDS011;5826;54.756;9.192;2022-08-14T05:50:26;1.88;;;1.77;;
11539;SDS011;5826;54.756;9.192;2022-08-14T05:52:52;2.28;;;1.70;;
11539;SDS011;5826;54.756;9.192;2022-08-14T05:55:18;2.72;;;1.70;;
11539;SDS011;5826;54.756;9.192;2022-08-14T05:57:45;2.65;;;1.80;;
11539;SDS011;5826;54.756;9.192;2022-08-14T06:00:12;1.63;;;1.52;;
11539;SDS011;5826;54.756;9.192;2022-08-14T06:02:38;1.83;;;1.70;;
11539;SDS011;5826;54.756;9.192;2022-08-14T06:05:03;2.08;;;1.73;;
11539;SDS011;5826;54.756;9.192;2022-08-14T06:07:29;2.30;;;1.65;;
11539;SDS011;5826;54.756;9.192;2022-08-14T06:09:55;1.80;;;1.58;;
11539;SDS011;5826;54.756;9.192;2022-08-14T06:12:20;1.80;;;1.70;;
11539;SDS011;5826;54.756;9.192;2022-08-14T06:14:46;2.45;;;1.50;;
11539;SDS011;5826;54.756;9.192;2022-08-14T06:17:11;1.65;;;1.55;;
11539;SDS011;5826;54.756;9.192;2022-08-14T06:19:36;1.50;;;1.40;;
11539;SDS011;5826;54.756;9.192;2022-08-14T06:22:02;1.60;;;1.50;;
11539;SDS011;5826;54.756;9.192;2022-08-14T06:24:28;1.63;;;1.52;;
11539;SDS011;5826;54.756;9.192;2022-08-14T06:26:53;1.25;;;1.15;;
11539;SDS011;5826;54.756;9.192;2022-08-14T06:29:19;2.03;;;1.50;;
11539;SDS011;5826;54.756;9.192;2022-08-14T06:31:44;1.48;;;1.20;;
11539;SDS011;5826;54.756;9.192;2022-08-14T06:34:10;1.50;;;1.40;;
11539;SDS011;5826;54.756;9.192;2022-08-14T06:36:36;1.50;;;1.40;;
11539;SDS011;5826;54.756;9.192;2022-08-14T06:39:02;1.80;;;1.50;;
11539;SDS011;5826;54.756;9.192;2022-08-14T06:41:28;2.03;;;1.60;;
11539;SDS011;5826;54.756;9.192;2022-08-14T06:43:53;1.60;;;1.30;;
11539;SDS011;5826;54.756;9.192;2022-08-14T06:46:19;1.52;;;1.40;;
11539;SDS011;5826;54.756;9.192;2022-08-14T06:48:44;1.80;;;1.70;;
11539;SDS011;5826;54.756;9.192;2022-08-14T06:51:13;1.58;;;1.48;;
11539;SDS011;5826;54.756;9.192;2022-08-14T06:53:38;1.40;;;1.30;;
11539;SDS011;5826;54.756;9.192;2022-08-14T06:56:04;1.58;;;1.48;;
11539;SDS011;5826;54.756;9.192;2022-08-14T06:58:29;1.70;;;1.60;;
11539;SDS011;5826;54.756;9.192;2022-08-14T07:00:55;1.42;;;1.33;;
11539;SDS011;5826;54.756;9.192;2022-08-14T07:03:39;1.42;;;1.30;;
11539;SDS011;5826;54.756;9.192;2022-08-14T07:06:23;1.83;;;1.50;;
11539;SDS011;5826;54.756;9.192;2022-08-14T07:08:49;1.20;;;1.20;;
11539;SDS011;5826;54.756;9.192;2022-08-14T07:11:17;2.13;;;1.27;;
11539;SDS011;5826;54.756;9.192;2022-08-14T07:13:42;1.40;;;1.30;;
11539;SDS011;5826;54.756;9.192;2022-08-14T07:16:08;1.88;;;1.40;;
11539;SDS011;5826;54.756;9.192;2022-08-14T07:18:36;1.20;;;1.10;;
11539;SDS011;5826;54.756;9.192;2022-08-14T07:21:03;1.25;;;1.15;;
11539;SDS011;5826;54.756;9.192;2022-08-14T07:23:30;1.60;;;1.48;;
11539;SDS011;5826;54.756;9.192;2022-08-14T07:25:57;1.30;;;1.20;;
11539;SDS011;5826;54.756;9.192;2022-08-14T07:28:27;1.35;;;1.25;;
11539;SDS011;5826;54.756;9.192;2022-08-14T07:30:56;1.10;;;1.10;;
11539;SDS011;5826;54.756;9.192;2022-08-14T07:33:23;1.77;;;1.33;;
11539;SDS011;5826;54.756;9.192;2022-08-14T07:35:50;2.05;;;1.10;;
11539;SDS011;5826;54.756;9.192;2022-08-14T07:38:18;1.52;;;1.30;;
11539;SDS011;5826;54.756;9.192;2022-08-14T07:40:46;1.65;;;1.30;;
11539;SDS011;5826;54.756;9.192;2022-08-14T07:43:12;1.13;;;1.08;;
11539;SDS011;5826;54.756;9.192;2022-08-14T07:45:38;1.52;;;1.30;;
11539;SDS011;5826;54.756;9.192;2022-08-14T07:48:05;2.05;;;1.45;;
11539;SDS011;5826;54.756;9.192;2022-08-14T07:50:31;2.47;;;1.40;;
11539;SDS011;5826;54.756;9.192;2022-08-14T07:52:57;1.88;;;1.38;;
11539;SDS011;5826;54.756;9.192;2022-08-14T07:55:24;1.40;;;1.30;;
11539;SDS011;5826;54.756;9.192;2022-08-14T07:57:50;1.75;;;1.40;;
11539;SDS011;5826;54.756;9.192;2022-08-14T08:00:19;1.67;;;1.40;;
11539;SDS011;5826;54.756;9.192;2022-08-14T08:02:47;1.60;;;1.40;;
11539;SDS011;5826;54.756;9.192;2022-08-14T08:05:15;2.13;;;1.38;;
11539;SDS011;5826;54.756;9.192;2022-08-14T08:07:43;1.73;;;1.63;;
11539;SDS011;5826;54.756;9.192;2022-08-14T08:12:56;2.67;;;1.55;;
11539;SDS011;5826;54.756;9.192;2022-08-14T08:15:23;1.45;;;1.35;;
11539;SDS011;5826;54.756;9.192;2022-08-14T08:17:50;1.35;;;1.25;;
11539;SDS011;5826;54.756;9.192;2022-08-14T08:20:17;1.52;;;1.42;;
11539;SDS011;5826;54.756;9.192;2022-08-14T08:22:44;2.30;;;1.67;;
11539;SDS011;5826;54.756;9.192;2022-08-14T08:25:10;2.35;;;1.63;;
11539;SDS011;5826;54.756;9.192;2022-08-14T08:27:36;2.50;;;1.63;;
11539;SDS011;5826;54.756;9.192;2022-08-14T08:30:08;1.60;;;1.50;;
11539;SDS011;5826;54.756;9.192;2022-08-14T08:32:41;2.13;;;1.73;;
11539;SDS011;5826;54.756;9.192;2022-08-14T08:35:21;1.70;;;1.60;;
11539;SDS011;5826;54.756;9.192;2022-08-14T08:37:50;1.70;;;1.60;;
11539;SDS011;5826;54.756;9.192;2022-08-14T08:40:36;1.50;;;1.40;;
11539;SDS011;5826;54.756;9.192;2022-08-14T08:43:06;1.40;;;1.30;;
11539;SDS011;5826;54.756;9.192;2022-08-14T08:45:40;2.30;;;1.60;;
11539;SDS011;5826;54.756;9.192;2022-08-14T08:48:06;1.58;;;1.48;;
11539;SDS011;5826;54.756;9.192;2022-08-14T08:50:33;1.48;;;1.38;;
11539;SDS011;5826;54.756;9.192;2022-08-14T08:53:04;1.80;;;1.50;;
11539;SDS011;5826;54.756;9.192;2022-08-14T08:55:33;2.45;;;1.92;;
11539;SDS011;5826;54.756;9.192;2022-08-14T08:58:00;2.38;;;1.60;;
11539;SDS011;5826;54.756;9.192;2022-08-14T09:00:28;1.73;;;1.55;;
11539;SDS011;5826;54.756;9.192;2022-08-14T09:03:02;1.52;;;1.13;;
11539;SDS011;5826;54.756;9.192;2022-08-14T09:05:30;1.70;;;1.33;;
11539;SDS011;5826;54.756;9.192;2022-08-14T09:08:13;1.85;;;1.60;;
11539;SDS011;5826;54.756;9.192;2022-08-14T09:10:44;1.95;;;1.60;;
11539;SDS011;5826;54.756;9.192;2022-08-14T09:13:11;5.28;;;1.90;;
11539;SDS011;5826;54.756;9.192;2022-08-14T09:15:39;1.70;;;1.60;;
11539;SDS011;5826;54.756;9.192;2022-08-14T09:18:06;2.67;;;1.80;;
11539;SDS011;5826;54.756;9.192;2022-08-14T09:20:33;4.10;;;1.92;;
11539;SDS011;5826;54.756;9.192;2022-08-14T09:23:00;1.88;;;1.77;;
11539;SDS011;5826;54.756;9.192;2022-08-14T09:25:27;2.35;;;1.70;;
11539;SDS011;5826;54.756;9.192;2022-08-14T09:27:53;2.25;;;1.85;;
11539;SDS011;5826;54.756;9.192;2022-08-14T09:30:19;1.83;;;1.73;;
11539;SDS011;5826;54.756;9.192;2022-08-14T09:32:52;4.22;;;2.20;;
11539;SDS011;5826;54.756;9.192;2022-08-14T09:38:32;1.73;;;1.63;;
11539;SDS011;5826;54.756;9.192;2022-08-14T09:41:32;2.38;;;1.80;;
11539;SDS011;5826;54.756;9.192;2022-08-14T09:44:19;1.90;;;1.80;;
11539;SDS011;5826;54.756;9.192;2022-08-14T09:47:05;2.17;;;1.70;;
11539;SDS011;5826;54.756;9.192;2022-08-14T09:49:32;2.10;;;1.80;;
11539;SDS011;5826;54.756;9.192;2022-08-14T09:52:04;4.22;;;1.90;;
11539;SDS011;5826;54.756;9.192;2022-08-14T09:54:35;2.30;;;2.10;;
11539;SDS011;5826;54.756;9.192;2022-08-14T09:57:27;2.92;;;1.85;;
11539;SDS011;5826;54.756;9.192;2022-08-14T09:59:55;1.88;;;1.75;;
11539;SDS011;5826;54.756;9.192;2022-08-14T10:02:22;4.80;;;2.00;;
11539;SDS011;5826;54.756;9.192;2022-08-14T10:05:06;2.00;;;1.90;;
11539;SDS011;5826;54.756;9.192;2022-08-14T10:07:47;2.40;;;2.20;;
11539;SDS011;5826;54.756;9.192;2022-08-14T10:10:27;2.45;;;2.10;;
11539;SDS011;5826;54.756;9.192;2022-08-14T10:12:57;2.50;;;2.10;;
11539;SDS011;5826;54.756;9.192;2022-08-14T10:15:26;2.30;;;2.10;;
11539;SDS011;5826;54.756;9.192;2022-08-14T10:18:07;2.00;;;1.90;;
11539;SDS011;5826;54.756;9.192;2022-08-14T10:20:37;2.53;;;1.90;;
11539;SDS011;5826;54.756;9.192;2022-08-14T10:23:18;2.20;;;2.00;;
11539;SDS011;5826;54.756;9.192;2022-08-14T10:25:46;2.30;;;2.10;;
11539;SDS011;5826;54.756;9.192;2022-08-14T10:28:14;2.28;;;2.17;;
11539;SDS011;5826;54.756;9.192;2022-08-14T10:30:45;2.20;;;2.00;;
11539;SDS011;5826;54.756;9.192;2022-08-14T10:33:25;3.53;;;2.10;;
11539;SDS011;5826;54.756;9.192;2022-08-14T10:35:53;2.00;;;1.90;;
11539;SDS011;5826;54.756;9.192;2022-08-14T10:38:25;2.38;;;1.98;;
11539;SDS011;5826;54.756;9.192;2022-08-14T10:40:52;2.97;;;2.10;;
11539;SDS011;5826;54.756;9.192;2022-08-14T10:43:19;2.20;;;2.00;;
11539;SDS011;5826;54.756;9.192;2022-08-14T10:45:58;2.20;;;2.00;;
11539;SDS011;5826;54.756;9.192;2022-08-14T10:48:26;2.78;;;2.30;;
11539;SDS011;5826;54.756;9.192;2022-08-14T10:50:52;2.38;;;2.17;;
11539;SDS011;5826;54.756;9.192;2022-08-14T10:53:29;2.40;;;2.20;;
11539;SDS011;5826;54.756;9.192;2022-08-14T10:56:01;2.58;;;2.35;;
11539;SDS011;5826;54.756;9.192;2022-08-14T10:58:31;2.88;;;2.50;;
11539;SDS011;5826;54.756;9.192;2022-08-14T11:00:58;3.78;;;2.33;;
11539;SDS011;5826;54.756;9.192;2022-08-14T11:06:21;3.50;;;2.60;;
11539;SDS011;5826;54.756;9.192;2022-08-14T11:08:48;3.10;;;2.80;;
11539;SDS011;5826;54.756;9.192;2022-08-14T11:11:14;2.70;;;2.50;;
11539;SDS011;5826;54.756;9.192;2022-08-14T11:13:42;4.43;;;2.70;;
11539;SDS011;5826;54.756;9.192;2022-08-14T11:16:08;2.67;;;2.47;;
11539;SDS011;5826;54.756;9.192;2022-08-14T11:18:35;3.25;;;2.60;;
11539;SDS011;5826;54.756;9.192;2022-08-14T11:21:02;3.22;;;2.53;;
11539;SDS011;5826;54.756;9.192;2022-08-14T11:23:31;2.72;;;2.50;;
11539;SDS011;5826;54.756;9.192;2022-08-14T11:25:59;3.15;;;2.70;;
11539;SDS011;5826;54.756;9.192;2022-08-14T11:28:26;2.67;;;2.47;;
11539;SDS011;5826;54.756;9.192;2022-08-14T11:30:56;2.47;;;2.30;;
11539;SDS011;5826;54.756;9.192;2022-08-14T11:33:22;2.83;;;2.63;;
11539;SDS011;5826;54.756;9.192;2022-08-14T11:35:50;2.88;;;2.67;;
11539;SDS011;5826;54.756;9.192;2022-08-14T11:38:15;2.45;;;2.22;;
11539;SDS011;5826;54.756;9.192;2022-08-14T11:40:45;2.63;;;2.42;;
11539;SDS011;5826;54.756;9.192;2022-08-14T11:43:11;2.30;;;2.20;;
11539;SDS011;5826;54.756;9.192;2022-08-14T11:45:37;3.67;;;2.38;;
11539;SDS011;5826;54.756;9.192;2022-08-14T11:48:20;2.67;;;2.47;;
11539;SDS011;5826;54.756;9.192;2022-08-14T11:50:47;2.60;;;2.30;;
11539;SDS011;5826;54.756;9.192;2022-08-14T11:53:24;2.40;;;2.20;;
11539;SDS011;5826;54.756;9.192;2022-08-14T11:55:59;2.78;;;2.58;;
11539;SDS011;5826;54.756;9.192;2022-08-14T11:58:32;2.70;;;2.50;;
11539;SDS011;5826;54.756;9.192;2022-08-14T12:01:00;2.42;;;2.22;;
11539;SDS011;5826;54.756;9.192;2022-08-14T12:06:09;3.03;;;2.22;;
11539;SDS011;5826;54.756;9.192;2022-08-14T12:08:37;2.58;;;2.22;;
11539;SDS011;5826;54.756;9.192;2022-08-14T12:11:04;2.60;;;2.40;;
11539;SDS011;5826;54.756;9.192;2022-08-14T12:13:32;2.55;;;2.40;;
11539;SDS011;5826;54.756;9.192;2022-08-14T12:15:59;2.53;;;2.33;;
11539;SDS011;5826;54.756;9.192;2022-08-14T12:18:31;2.58;;;2.38;;
11539;SDS011;5826;54.756;9.192;2022-08-14T12:20:58;3.65;;;2.50;;
11539;SDS011;5826;54.756;9.192;2022-08-14T12:23:38;2.58;;;2.15;;
11539;SDS011;5826;54.756;9.192;2022-08-14T12:26:04;2.33;;;2.22;;
11539;SDS011;5826;54.756;9.192;2022-08-14T12:28:31;2.10;;;2.00;;
11539;SDS011;5826;54.756;9.192;2022-08-14T12:30:57;3.13;;;2.20;;
11539;SDS011;5826;54.756;9.192;2022-08-14T12:33:24;2.20;;;2.03;;
11539;SDS011;5826;54.756;9.192;2022-08-14T12:35:53;2.10;;;2.00;;
11539;SDS011;5826;54.756;9.192;2022-08-14T12:38:29;7.65;;;7.10;;
11539;SDS011;5826;54.756;9.192;2022-08-14T12:41:00;11.82;;;11.02;;
11539;SDS011;5826;54.756;9.192;2022-08-14T12:43:26;8.52;;;7.90;;
11539;SDS011;5826;54.756;9.192;2022-08-14T12:45:53;5.57;;;5.18;;
11539;SDS011;5826;54.756;9.192;2022-08-14T12:48:20;4.63;;;4.32;;
11539;SDS011;5826;54.756;9.192;2022-08-14T12:50:46;3.78;;;3.58;;
11539;SDS011;5826;54.756;9.192;2022-08-14T12:53:16;3.85;;;3.55;;
11539;SDS011;5826;54.756;9.192;2022-08-14T12:55:42;4.55;;;4.15;;
11539;SDS011;5826;54.756;9.192;2022-08-14T12:58:09;3.53;;;3.22;;
11539;SDS011;5826;54.756;9.192;2022-08-14T13:00:37;4.25;;;3.90;;
11539;SDS011;5826;54.756;9.192;2022-08-14T13:03:24;7.40;;;6.70;;
11539;SDS011;5826;54.756;9.192;2022-08-14T13:05:50;9.65;;;8.75;;
11539;SDS011;5826;54.756;9.192;2022-08-14T13:08:16;14.32;;;12.77;;
11539;SDS011;5826;54.756;9.192;2022-08-14T13:10:42;15.18;;;13.60;;
11539;SDS011;5826;54.756;9.192;2022-08-14T13:13:09;12.30;;;11.02;;
11539;SDS011;5826;54.756;9.192;2022-08-14T13:15:35;16.05;;;12.88;;
11539;SDS011;5826;54.756;9.192;2022-08-14T13:18:04;14.43;;;12.93;;
11539;SDS011;5826;54.756;9.192;2022-08-14T13:20:30;12.82;;;11.32;;
11539;SDS011;5826;54.756;9.192;2022-08-14T13:22:55;9.35;;;8.45;;
11539;SDS011;5826;54.756;9.192;2022-08-14T13:25:24;8.60;;;7.80;;
11539;SDS011;5826;54.756;9.192;2022-08-14T13:27:52;7.70;;;7.00;;
11539;SDS011;5826;54.756;9.192;2022-08-14T13:30:19;8.30;;;6.25;;
11539;SDS011;5826;54.756;9.192;2022-08-14T13:32:48;5.82;;;5.32;;
11539;SDS011;5826;54.756;9.192;2022-08-14T13:35:15;5.18;;;4.72;;
11539;SDS011;5826;54.756;9.192;2022-08-14T13:37:41;4.90;;;4.47;;
11539;SDS011;5826;54.756;9.192;2022-08-14T13:40:08;4.10;;;3.70;;
11539;SDS011;5826;54.756;9.192;2022-08-14T13:42:37;3.58;;;3.28;;
11539;SDS011;5826;54.756;9.192;2022-08-14T13:45:07;3.15;;;2.95;;
11539;SDS011;5826;54.756;9.192;2022-08-14T13:47:33;3.05;;;2.85;;
11539;SDS011;5826;54.756;9.192;2022-08-14T13:50:00;2.80;;;2.58;;
11539;SDS011;5826;54.756;9.192;2022-08-14T13:52:29;2.88;;;2.67;;
11539;SDS011;5826;54.756;9.192;2022-08-14T13:55:05;2.53;;;2.33;;
11539;SDS011;5826;54.756;9.192;2022-08-14T13:57:32;2.30;;;2.13;;
11539;SDS011;5826;54.756;9.192;2022-08-14T14:00:00;2.33;;;2.13;;
11539;SDS011;5826;54.756;9.192;2022-08-14T14:02:30;2.42;;;2.22;;
11539;SDS011;5826;54.756;9.192;2022-08-14T14:05:00;1.90;;;1.80;;
11539;SDS011;5826;54.756;9.192;2022-08-14T14:07:28;2.10;;;1.90;;
11539;SDS011;5826;54.756;9.192;2022-08-14T14:09:57;1.90;;;1.80;;
11539;SDS011;5826;54.756;9.192;2022-08-14T14:12:26;2.47;;;1.80;;
11539;SDS011;5826;54.756;9.192;2022-08-14T14:14:51;1.60;;;1.50;;
11539;SDS011;5826;54.756;9.192;2022-08-14T14:17:17;1.65;;;1.55;;
11539;SDS011;5826;54.756;9.192;2022-08-14T14:19:48;1.50;;;1.40;;
11539;SDS011;5826;54.756;9.192;2022-08-14T14:22:15;1.60;;;1.50;;
11539;SDS011;5826;54.756;9.192;2022-08-14T14:24:42;1.60;;;1.40;;
11539;SDS011;5826;54.756;9.192;2022-08-14T14:27:08;1.35;;;1.25;;
11539;SDS011;5826;54.756;9.192;2022-08-14T14:29:36;1.50;;;1.40;;
11539;SDS011;5826;54.756;9.192;2022-08-14T14:32:03;1.25;;;1.20;;
11539;SDS011;5826;54.756;9.192;2022-08-14T14:34:30;1.17;;;1.17;;
11539;SDS011;5826;54.756;9.192;2022-08-14T14:36:59;1.40;;;1.30;;
11539;SDS011;5826;54.756;9.192;2022-08-14T14:39:29;1.40;;;1.30;;
11539;SDS011;5826;54.756;9.192;2022-08-14T14:41:56;1.50;;;1.10;;
11539;SDS011;5826;54.756;9.192;2022-08-14T14:44:27;10.55;;;7.80;;
11539;SDS011;5826;54.756;9.192;2022-08-14T14:46:57;12.50;;;9.18;;
11539;SDS011;5826;54.756;9.192;2022-08-14T14:49:23;6.22;;;5.63;;
11539;SDS011;5826;54.756;9.192;2022-08-14T14:51:50;5.40;;;4.45;;
11539;SDS011;5826;54.756;9.192;2022-08-14T14:54:16;5.40;;;4.50;;
11539;SDS011;5826;54.756;9.192;2022-08-14T14:56:43;4.30;;;3.70;;
11539;SDS011;5826;54.756;9.192;2022-08-14T14:59:10;3.97;;;3.60;;
11539;SDS011;5826;54.756;9.192;2022-08-14T15:01:37;3.90;;;3.50;;
11539;SDS011;5826;54.756;9.192;2022-08-14T15:04:04;3.53;;;3.22;;
11539;SDS011;5826;54.756;9.192;2022-08-14T15:06:32;3.08;;;2.80;;
11539;SDS011;5826;54.756;9.192;2022-08-14T15:08:58;2.90;;;2.60;;
11539;SDS011;5826;54.756;9.192;2022-08-14T15:11:25;2.70;;;2.50;;
11539;SDS011;5826;54.756;9.192;2022-08-14T15:13:50;2.65;;;2.45;;
11539;SDS011;5826;54.756;9.192;2022-08-14T15:16:16;2.58;;;2.30;;
11539;SDS011;5826;54.756;9.192;2022-08-14T15:18:42;2.38;;;2.17;;